Flugplatz Dierdorf-Wienau

Für EDRW sind keine METAR/TAF Berichte vorhanden.
Es werden die Flugwettermeldungen vom Flugplatz Siegerland in 34 km Entfernung angezeigt.

Prognose für EDGS

vom 23.02. um 00:00 UTC

Am 23.02. zwischen 00:00 UTC und 00:00 UTC

Wind 30 kt aus 290° in Böen 50 kt

Sichtweite 3000 m

Regen

aufgebrochene Bewölkung in 400 ft


Am 23.02. zwischen 00:00 und 00:00 UTC übergehend zu

Wind 20 kt aus 290° in Böen 30 kt

Sichtweite 10 km oder mehr

keine signifikanten Wettererscheinungen

aufgelockert bewölkt in 500 ft

aufgebrochene Bewölkung in 1000 ft


Am 23.02. zwischen 00:00 und 00:00 UTC übergehend zu

Wind 12 kt aus 290°

Sichtweite 10 km oder mehr

keine signifikanten Wettererscheinungen

aufgelockert bewölkt in 1200 ft

aufgebrochene Bewölkung in 2500 ft

TAF EDGS 231700Z 2318/2403 29030G50KT 3000 RA BKN004 BECMG 2318/2320 29020G30KT 9999 NSW SCT005 BKN010 BECMG 2320/2323 29012KT SCT012 BKN025
Impressum